Latest Weather Observations for Nambour

IDQ60801

Issued at 4:32 pm EST Saturday 3 December 2016 (issued every 30 minutes, with the page automatically refreshed every 10 minutes)

About weather observations | Map of weather stations | Latest weather observations for QLD | Other Formats
Station Details ID: 040988 Name: NAMBOUR DAFF - HILLSIDE Lat: -26.64 Lon: 152.94 Height: 53.24 m
Data from the previous 72 hours. | See also: Recent months at Nambour
Date/Time
EST
Temp
°C
App
Temp
°C
Dew
Point
°C
Rel
Hum
%
Delta-T
°C
Wind Press
QNH
hPa
Press
MSL
hPa
Rain since
9am
mm
Dir  Spd
km/h
Gust
km/h
Spd
kts
Gust
kts
03/04:30pm 29.1 29.7 19.4 55 6.3 NE 15 26 8 14 1010.9 1010.6 0.0
03/04:00pm 29.4 30.2 19.1 54 6.7 NNE 13 24 7 13 1010.7 1010.4 0.0
03/03:30pm 29.9 31.0 19.6 54 6.7 NNE 13 24 7 13 1011.0 1010.7 0.0
03/03:00pm 30.4 30.8 19.1 50 7.4 NE 15 22 8 12 1011.4 1011.1 0.0
03/02:30pm 30.6 31.1 19.3 51 7.4 NE 15 26 8 14 1012.0 1011.7 0.0
03/02:00pm 31.5 32.8 20.1 50 7.6 NE 13 24 7 13 1012.5 1012.2 0.0
03/01:30pm 30.7 30.8 20.3 53 6.9 E 20 30 11 16 1012.8 1012.5 0.0
03/01:00pm 30.9 31.4 20.8 55 6.7 E 19 26 10 14 1013.1 1012.8 0.0
03/12:30pm 30.9 32.2 20.8 55 6.7 ENE 15 22 8 12 1013.5 1013.2 0.0
03/12:00pm 30.5 31.3 20.7 55 6.5 E 17 24 9 13 1013.8 1013.5 0.0
03/11:30am 31.8 33.9 20.1 50 7.8 NNE 9 17 5 9 1014.0 1013.7 0.0
03/11:00am 30.9 32.0 18.9 48 7.8 NE 11 17 6 9 1014.4 1014.1 0.0
03/10:30am 30.1 31.9 18.8 50 7.3 NNE 7 11 4 6 1015.0 1014.7 0.0
03/10:00am 29.1 30.6 18.8 53 6.7 N 9 19 5 10 1015.3 1015.0 0.0
03/09:30am 27.6 28.8 18.3 57 5.9 N 9 17 5 9 1015.6 1015.3 0.0
03/09:00am 26.5 27.8 18.4 61 5.2 NNW 9 17 5 9 1015.8 1015.5 0.0
03/08:30am 26.1 27.6 18.8 64 4.7 NW 9 17 5 9 1015.8 1015.5 0.0
03/08:00am 25.7 27.1 18.6 65 4.5 NW 9 20 5 11 1015.6 1015.3 0.0
03/07:30am 25.4 26.9 18.8 67 4.2 NNW 9 13 5 7 1015.4 1015.1 0.0
03/07:00am 25.6 27.8 19.5 69 3.9 NNW 7 13 4 7 1015.1 1014.8 0.0
03/06:30am 25.1 27.8 19.5 71 3.6 NNW 4 9 2 5 1014.8 1014.5 0.0
03/06:00am 24.7 27.9 19.8 74 3.2 N 2 7 1 4 1014.1 1013.8 0.0
03/05:30am 24.4 27.2 19.7 75 3.0 N 4 7 2 4 1013.9 1013.6 0.0
03/05:00am 24.4 27.2 19.7 75 3.0 N 4 6 2 3 1013.5 1013.2 0.0
03/04:30am 24.3 27.2 19.8 76 2.9 N 4 7 2 4 1013.2 1012.9 0.0
03/04:00am 24.3 26.8 19.8 76 2.9 N 6 9 3 5 1012.9 1012.6 0.0
03/03:30am 24.3 26.8 19.8 76 2.9 NNW 6 9 3 5 1012.7 1012.4 0.0
03/03:00am 24.3 27.6 20.0 77 2.8 N 2 6 1 3 1012.6 1012.3 0.0
03/02:30am 24.4 26.8 20.1 77 2.8 N 7 17 4 9 1012.2 1011.9 0.0
03/02:00am 24.3 26.8 20.2 78 2.7 N 7 15 4 8 1012.3 1012.0 0.0
03/01:30am 24.1 26.7 20.4 80 2.4 NNW 7 11 4 6 1012.7 1012.4 0.0
03/01:00am 23.7 27.0 20.8 84 1.9 NNW 4 6 2 3 1012.8 1012.5 0.0
03/12:30am 23.4 26.4 20.9 86 1.6 NNW 6 7 3 4 1013.1 1012.8 0.0
03/12:00am 23.1 26.5 21.0 88 1.4 NNW 4 7 2 4 1013.5 1013.2 0.0
 
Date/Time
EST
Temp
°C
App
Temp
°C
Dew
Point
°C
Rel
Hum
%
Delta-T
°C
Wind Press
QNH
hPa
Press
MSL
hPa
Rain since
9am
mm
Dir  Spd
km/h
Gust
km/h
Spd
kts
Gust
kts
02/11:30pm 23.0 26.8 20.9 88 1.4 NNW 2 4 1 2 1013.7 1013.4 0.0
02/11:00pm 23.3 26.5 20.6 85 1.8 N 4 6 2 3 1013.7 1013.4 0.0
02/10:30pm 23.6 26.6 20.9 85 1.8 NNW 6 7 3 4 1013.7 1013.4 0.0
02/10:00pm 23.6 26.6 20.9 85 1.8 NNW 6 9 3 5 1013.4 1013.1 0.0
02/09:30pm 23.6 27.6 21.3 87 1.5 NNW 2 6 1 3 1013.3 1013.0 0.0
02/09:00pm 23.6 27.1 20.3 82 2.1 NW 2 4 1 2 1012.8 1012.5 0.0
02/08:30pm 24.4 28.4 20.5 79 2.5 CALM 0 2 0 1 1012.4 1012.1 0.0
02/08:00pm 24.8 28.1 20.7 78 2.7 NW 4 6 2 3 1012.1 1011.8 0.0
02/07:30pm 25.2 28.4 20.5 75 3.1 N 4 7 2 4 1011.7 1011.4 0.0
02/07:00pm 25.8 28.6 20.4 72 3.5 NNE 6 9 3 5 1011.4 1011.1 0.0
02/06:30pm 26.4 29.0 20.5 70 3.9 NNE 7 13 4 7 1011.0 1010.7 0.0
02/06:00pm 27.1 29.2 20.2 66 4.5 NNE 9 17 5 9 1010.6 1010.3 0.0
02/05:30pm 27.8 29.9 20.1 63 5.0 NNE 9 17 5 9 1010.3 1010.0 0.0
02/05:00pm 28.6 30.4 19.5 58 5.9 NE 9 17 5 9 1010.0 1009.7 0.0
02/04:30pm 29.2 31.0 19.5 56 6.3 NNE 9 17 5 9 1009.8 1009.5 0.0
02/04:00pm 29.5 30.1 19.5 55 6.5 ENE 15 24 8 13 1009.7 1009.4 0.0
02/03:30pm 30.4 31.1 19.7 52 7.0 ENE 15 20 8 11 1009.6 1009.3 0.0
02/03:00pm 30.6 31.9 20.2 53 6.9 ENE 13 26 7 14 1009.6 1009.3 0.0
02/02:30pm 30.3 31.0 19.6 52 7.0 ENE 15 20 8 11 1009.9 1009.6 0.0
02/02:00pm 29.8 30.4 19.5 54 6.7 NE 15 22 8 12 1010.1 1009.8 0.0
02/01:30pm 30.3 31.2 20.0 54 6.8 ENE 15 26 8 14 1010.2 1009.9 0.0
02/01:00pm 30.0 30.3 20.5 56 6.3 E 19 28 10 15 1010.4 1010.1 0.0
02/12:30pm 30.1 30.5 20.6 56 6.3 E 19 26 10 14 1010.7 1010.4 0.0
02/12:00pm 31.5 33.0 18.8 46 8.3 NNE 9 15 5 8 1010.9 1010.6 0.0
02/11:30am 30.8 31.8 17.8 45 8.3 NNW 9 17 5 9 1011.3 1011.0 0.0
02/11:00am 30.0 31.1 18.1 49 7.6 NNE 9 20 5 11 1011.7 1011.4 0.0
02/10:30am 29.1 29.9 18.2 51 7.0 NNE 11 19 6 10 1012.1 1011.8 0.0
02/10:00am 28.4 29.3 18.5 55 6.4 N 11 19 6 10 1012.4 1012.1 0.0
02/09:30am 27.5 28.8 18.5 58 5.8 N 9 20 5 11 1012.6 1012.3 0.0
02/09:00am 26.6 27.8 19.0 63 4.9 N 11 20 6 11 1012.6 1012.3 12.6
02/08:30am 25.9 27.0 18.8 65 4.5 NNW 11 22 6 12 1012.8 1012.5 12.6
02/08:00am 24.6 25.8 19.0 71 3.6 N 11 17 6 9 1012.9 1012.6 12.6
02/07:30am 23.8 25.4 19.1 75 3.0 NNW 9 17 5 9 1013.2 1012.9 12.6
02/07:00am 23.3 24.5 19.0 77 2.7 NNW 11 22 6 12 1013.0 1012.7 12.6
02/06:30am 22.9 24.6 19.3 80 2.3 NNW 9 19 5 10 1012.6 1012.3 12.6
02/06:00am 21.6 23.8 19.3 87 1.5 NNE 6 11 3 6 1012.2 1011.9 12.6
02/05:30am 20.0 23.1 18.7 92 0.8 CALM 0 0 0 0 1012.1 1011.8 12.6
02/05:00am 19.0 21.7 17.7 92 0.8 CALM 0 0 0 0 1011.9 1011.6 12.6
02/04:30am 19.8 22.4 18.5 92 0.8 NNW 2 4 1 2 1011.7 1011.4 12.6
02/04:00am 19.9 22.8 18.2 90 1.1 CALM 0 2 0 1 1011.4 1011.1 12.6
02/03:30am 19.4 22.2 17.9 91 0.9 CALM 0 2 0 1 1011.0 1010.7 12.6
02/03:00am 18.8 21.2 17.1 90 1.0 CALM 0 0 0 0 1010.8 1010.5 12.6
02/02:30am 18.7 20.5 17.4 92 0.8 WNW 4 7 2 4 1010.8 1010.5 12.6
02/02:00am 18.3 20.8 17.3 94 0.6 CALM 0 0 0 0 1010.9 1010.6 12.6
02/01:30am 17.8 20.0 16.5 92 0.8 CALM 0 0 0 0 1011.1 1010.8 12.6
02/01:00am 17.9 20.1 16.6 92 0.8 CALM 0 0 0 0 1011.3 1011.0 12.4
02/12:30am 18.3 20.8 17.3 94 0.6 CALM 0 0 0 0 1011.3 1011.0 12.4
02/12:00am 18.2 20.5 16.7 91 0.9 CALM 0 0 0 0 1011.5 1011.2 12.4
 
Date/Time
EST
Temp
°C
App
Temp
°C
Dew
Point
°C
Rel
Hum
%
Delta-T
°C
Wind Press
QNH
hPa
Press
MSL
hPa
Rain since
9am
mm
Dir  Spd
km/h
Gust
km/h
Spd
kts
Gust
kts
01/11:30pm 18.6 20.9 16.8 89 1.1 CALM 0 0 0 0 1011.9 1011.6 12.4
01/11:00pm 19.3 21.4 16.3 83 1.8 CALM 0 4 0 2 1012.1 1011.8 12.4
01/10:30pm 18.9 20.7 15.4 80 2.1 CALM 0 0 0 0 1012.0 1011.7 12.4
01/10:00pm 19.3 21.1 15.4 78 2.3 CALM 0 2 0 1 1011.9 1011.6 12.4
01/09:30pm 20.2 22.0 15.6 75 2.7 CALM 0 0 0 0 1012.1 1011.8 12.4
01/09:00pm 20.7 21.8 15.7 73 3.0 N 4 7 2 4 1011.9 1011.6 12.4
01/08:30pm 21.5 22.6 16.5 73 3.0 NNW 6 11 3 6 1011.7 1011.4 12.4
01/08:00pm 22.0 24.6 20.5 91 1.0 NW 7 20 4 11 1011.7 1011.4 12.4
01/07:30pm 22.4 24.6 20.5 89 1.2 N 9 20 5 11 1011.5 1011.2 12.4
01/07:00pm 22.3 24.5 20.4 89 1.2 NNE 9 15 5 8 1011.2 1010.9 12.4
01/06:30pm 22.2 24.4 20.5 90 1.1 ESE 9 22 5 12 1011.7 1011.4 10.0
01/06:16pm 22.8 25.3 20.3 86 1.6 W 7 20 4 11 1009.8 1009.5 8.4
01/06:00pm 22.6 24.0 20.3 87 1.5 NNW 13 26 7 14 1007.6 1007.4 8.4
01/05:30pm 22.5 24.7 20.4 88 1.4 NNW 9 15 5 8 1008.7 1008.4 8.4
01/05:00pm 22.5 24.1 20.8 90 1.1 N 13 22 7 12 1008.5 1008.2 8.4
01/04:30pm 22.3 25.0 20.6 90 1.1 NNE 7 19 4 10 1009.2 1008.9 7.4
01/04:15pm 22.8 25.2 19.6 82 2.1 SSE 6 13 3 7 1010.2 1009.9 4.4
01/04:00pm 23.5 24.6 18.8 75 3.0 ESE 11 30 6 16 1008.1 1007.9 1.0
01/03:30pm 25.1 24.7 18.1 65 4.4 ENE 17 32 9 17 1006.7 1006.5 0.0
01/03:00pm 27.0 26.3 18.3 59 5.6 NE 19 32 10 17 1007.3 1007.1 0.0
01/02:30pm 29.1 28.8 18.2 51 7.0 ENE 17 24 9 13 1007.7 1007.5 0.0
01/02:00pm 29.9 28.5 17.0 45 8.2 ENE 20 30 11 16 1008.0 1007.8 0.0
01/01:30pm 31.6 31.6 17.1 41 9.2 NE 13 26 7 14 1008.6 1008.3 0.0
01/01:00pm 30.5 30.0 15.8 41 9.1 NNE 13 22 7 12 1009.1 1008.8 0.0
01/12:30pm 31.9 31.1 14.1 34 10.8 NNW 11 26 6 14 1009.5 1009.2 0.0
01/12:00pm 31.0 30.0 14.6 37 10.0 N 13 26 7 14 1010.1 1009.8 0.0
01/11:30am 29.7 29.5 14.7 40 9.1 N 9 17 5 9 1010.7 1010.4 0.0
01/11:00am 28.8 29.1 16.0 45 7.9 N 9 17 5 9 1011.5 1011.2 0.0
01/10:30am 28.3 28.8 16.6 49 7.3 N 9 17 5 9 1012.1 1011.8 0.0
01/10:00am 27.2 26.4 16.2 51 6.8 WNW 15 22 8 12 1012.7 1012.4 0.0
01/09:30am 26.6 26.1 16.8 55 6.1 NNW 15 24 8 13 1012.9 1012.7 0.0
01/09:00am 25.9 25.2 16.5 56 5.8 NW 15 28 8 15 1012.8 1012.6 5.0
01/08:30am 25.5 25.2 16.4 57 5.6 NW 13 26 7 14 1012.9 1012.7 4.8
01/08:00am 25.2 25.9 17.1 60 5.0 N 9 19 5 10 1012.8 1012.6 4.8
01/07:30am 24.4 25.5 17.1 63 4.5 NW 7 13 4 7 1012.6 1012.4 4.8
01/07:00am 23.1 24.4 17.6 71 3.4 N 7 13 4 7 1012.4 1012.2 4.8
01/06:30am 21.3 24.2 18.1 82 2.0 CALM 0 0 0 0 1012.2 1012.0 4.8
01/06:00am 19.2 21.7 18.2 94 0.6 W 2 4 1 2 1012.3 1012.1 4.8
01/05:30am 18.2 20.8 17.4 95 0.5 CALM 0 0 0 0 1012.3 1012.1 4.8
01/05:00am 17.3 19.1 16.5 95 0.5 SSW 2 2 1 1 1011.9 1011.6 4.8
01/04:30am 17.7 19.7 16.9 95 0.5 SSE 2 4 1 2 1011.7 1011.4 4.8
01/04:00am 17.5 19.4 16.7 95 0.5 SSW 2 6 1 3 1011.1 1010.8 4.8
01/03:30am 17.8 20.3 17.2 96 0.4 CALM 0 0 0 0 1011.0 1010.7 4.8
01/03:00am 17.5 19.8 16.7 95 0.5 CALM 0 0 0 0 1011.2 1010.9 4.8
01/02:30am 17.8 20.2 17.0 95 0.5 CALM 0 0 0 0 1011.6 1011.3 4.8
01/02:00am 17.7 20.0 16.7 94 0.6 CALM 0 4 0 2 1011.6 1011.3 4.8
01/01:30am 18.2 20.8 17.4 95 0.5 CALM 0 4 0 2 1011.3 1011.0 4.8
01/01:00am 18.1 20.6 17.3 95 0.5 CALM 0 0 0 0 1011.6 1011.3 4.8
01/12:30am 18.0 20.4 17.0 94 0.6 CALM 0 0 0 0 1011.7 1011.4 4.8
01/12:00am 18.5 21.2 17.7 95 0.5 CALM 0 0 0 0 1012.0 1011.8 4.8
 
Date/Time
EST
Temp
°C
App
Temp
°C
Dew
Point
°C
Rel
Hum
%
Delta-T
°C
Wind Press
QNH
hPa
Press
MSL
hPa
Rain since
9am
mm
Dir  Spd
km/h
Gust
km/h
Spd
kts
Gust
kts
30/11:30pm 18.2 20.7 17.2 94 0.6 CALM 0 0 0 0 1012.4 1012.2 4.8
30/11:00pm 18.4 21.0 17.6 95 0.5 CALM 0 0 0 0 1012.4 1012.2 4.8
30/10:30pm 18.8 21.5 17.8 94 0.6 CALM 0 0 0 0 1012.6 1012.4 4.8
30/10:00pm 19.1 22.0 18.1 94 0.6 CALM 0 0 0 0 1012.8 1012.6 4.8
30/09:30pm 19.1 21.8 17.8 92 0.8 CALM 0 0 0 0 1013.2 1013.0 4.8
30/09:00pm 19.5 21.6 18.0 91 0.9 S 4 7 2 4 1013.0 1012.8 4.8
30/08:30pm 19.8 22.1 17.8 88 1.2 SSW 2 6 1 3 1012.7 1012.5 4.8
30/08:00pm 20.1 21.8 17.1 83 1.8 SW 4 6 2 3 1012.5 1012.3 4.8
30/07:30pm 20.9 22.3 17.3 80 2.2 NW 6 13 3 7 1012.1 1011.9 4.8
30/07:00pm 20.1 20.4 15.9 77 2.5 NW 9 17 5 9 1012.1 1011.9 4.8
30/06:42pm 20.1 19.1 16.5 80 2.2 NE 17 30 9 16 1010.9 1010.6 4.6
30/06:30pm 21.0 21.9 17.6 81 2.1 NE 9 15 5 8 1012.9 1012.7 3.8
30/06:00pm 23.8 24.3 16.6 64 4.4 E 9 15 5 8 1013.0 1012.8 0.0
30/05:57pm 23.9 24.5 16.7 64 4.4 E 9 17 5 9 1012.9 1012.7 0.0
30/05:30pm 23.9 23.2 16.4 63 4.6 ENE 15 26 8 14 1010.9 1010.6 0.0
30/05:00pm 24.4 22.8 16.1 60 5.1 NNE 19 28 10 15 1010.1 1009.8 0.0

Other Formats:

Comma delimited format used in spreadsheet applications
http://www.bom.gov.au/fwo/IDQ60801/IDQ60801.95572.axf

JavaScript Object Notation format (JSON) in row-major order
http://www.bom.gov.au/fwo/IDQ60801/IDQ60801.95572.json